Terminal Aerodrome Forecast
Issued by NWS Cleveland, OH

Home | Current Version | Previous Version | Graphics & Text | Print | Product List | Glossary On
Versions: 1 2 3 4 5 6 7 8 9 10 11 12 13 14 15 16
000
FTUS41 KCLE 031739
TAFCAK
TAF
KCAK 031739Z 0318/0418 08006KT P6SM SCT035 BKN200
     FM032100 03006KT P6SM VCSH BKN060 OVC150
     FM040300 35004KT P6SM SCT060 OVC100
     FM040900 02003KT 4SM BR BKN100
     FM041300 35007KT P6SM SCT020 BKN200=

USA.gov is the U.S. government's official web portal to all federal, state and local government web resources and services.